Gilgit Weather



Gilgit's Current Weather

Temprature 32.97o scattered clouds

scattered clouds

Rain: 0 %

Min Temprature32.97o
Max Temprature32.97o
Humidity18
Wind Speed1.31 m/h
Sun Rise05:19:54
Sun Set18:55:30
Current Time: 13-Aug-2020 18:42:11
Lat/Lon: 35.92, 74.31




Gilgit's Geo Location



Gilgit's Weather Forecast

Time Overall Temp Min Temp Max Temp Humidity Wind Speed Rain
13-Aug-2020 (Thu)
20:00:00 scattered clouds 33.220 31.900 33.220 19 1.29 m/h 0 %
23:00:00 few clouds 30.650 29.600 30.650 24 2.39 m/h 0 %
14-Aug-2020 (Fri)
02:00:00 clear sky 27.970 27.530 27.970 32 2.16 m/h 0 %
05:00:00 clear sky 26.070 26.000 26.070 39 1.56 m/h 0 %
08:00:00 clear sky 28.320 28.320 28.320 34 1.6 m/h 0 %
11:00:00 clear sky 31.850 31.850 31.850 26 1.77 m/h 0 %
14:00:00 few clouds 34.500 34.500 34.500 19 1.87 m/h 0 %
17:00:00 few clouds 35.220 35.220 35.220 16 2.2 m/h 0 %
20:00:00 clear sky 31.980 31.980 31.980 21 2 m/h 0 %
23:00:00 clear sky 29.980 29.980 29.980 27 2.07 m/h 0 %
15-Aug-2020 (Sat)
02:00:00 clear sky 28.000 28.000 28.000 32 2.08 m/h 0 %
05:00:00 clear sky 26.310 26.310 26.310 38 1.69 m/h 0 %
08:00:00 light rain 28.500 28.500 28.500 34 1.33 m/h 17 %
11:00:00 light rain 32.220 32.220 32.220 27 1.22 m/h 21 %
14:00:00 light rain 34.540 34.540 34.540 21 2.1 m/h 10 %
17:00:00 scattered clouds 34.980 34.980 34.980 20 0.97 m/h 0 %
20:00:00 few clouds 32.740 32.740 32.740 24 1.31 m/h 0 %
23:00:00 clear sky 30.750 30.750 30.750 27 1.09 m/h 0 %
16-Aug-2020 (Sun)
02:00:00 clear sky 28.810 28.810 28.810 30 1.16 m/h 0 %
05:00:00 clear sky 27.030 27.030 27.030 34 1.14 m/h 0 %
08:00:00 clear sky 29.790 29.790 29.790 31 1.48 m/h 0 %
11:00:00 clear sky 33.570 33.570 33.570 23 0.69 m/h 0 %
14:00:00 clear sky 36.770 36.770 36.770 15 0.81 m/h 0 %
17:00:00 clear sky 37.600 37.600 37.600 12 1.34 m/h 0 %
20:00:00 clear sky 34.480 34.480 34.480 19 1.79 m/h 0 %
23:00:00 clear sky 32.050 32.050 32.050 27 1.39 m/h 0 %
17-Aug-2020 (Mon)
02:00:00 clear sky 29.980 29.980 29.980 30 1.46 m/h 0 %
05:00:00 clear sky 28.190 28.190 28.190 34 1.19 m/h 0 %
08:00:00 clear sky 30.550 30.550 30.550 32 1.53 m/h 0 %
11:00:00 light rain 34.050 34.050 34.050 25 1.34 m/h 17 %
14:00:00 light rain 36.940 36.940 36.940 17 1.59 m/h 22 %
17:00:00 few clouds 37.000 37.000 37.000 17 2.76 m/h 0 %
20:00:00 clear sky 33.800 33.800 33.800 22 2.62 m/h 0 %
23:00:00 clear sky 31.490 31.490 31.490 27 2.35 m/h 0 %
18-Aug-2020 (Tue)
02:00:00 light rain 29.120 29.120 29.120 32 2.06 m/h 13 %
05:00:00 light rain 27.250 27.250 27.250 37 1.8 m/h 45 %
08:00:00 clear sky 29.320 29.320 29.320 34 2.17 m/h 0 %
11:00:00 light rain 33.070 33.070 33.070 25 1.97 m/h 25 %
14:00:00 clear sky 36.000 36.000 36.000 17 2.85 m/h 0 %
17:00:00 clear sky 35.810 35.810 35.810 16 3.71 m/h 0 %

Famous Cities (60)